sensor_id;sensor_type;location;lat;lon;timestamp;P1;durP1;ratioP1;P2;durP2;ratioP2
1414;SDS011;702;49.466;11.086;2023-06-26T00:01:41;7.40;;;6.40;;
1414;SDS011;702;49.466;11.086;2023-06-26T00:04:08;7.80;;;6.13;;
1414;SDS011;702;49.466;11.086;2023-06-26T00:06:41;7.43;;;6.57;;
1414;SDS011;702;49.466;11.086;2023-06-26T00:09:08;6.60;;;6.00;;
1414;SDS011;702;49.466;11.086;2023-06-26T00:11:37;7.60;;;6.27;;
1414;SDS011;702;49.466;11.086;2023-06-26T00:14:04;6.83;;;6.13;;
1414;SDS011;702;49.466;11.086;2023-06-26T00:16:31;7.50;;;6.17;;
1414;SDS011;702;49.466;11.086;2023-06-26T00:18:59;8.67;;;6.47;;
1414;SDS011;702;49.466;11.086;2023-06-26T00:21:26;7.00;;;6.33;;
1414;SDS011;702;49.466;11.086;2023-06-26T00:23:55;6.97;;;6.27;;
1414;SDS011;702;49.466;11.086;2023-06-26T00:26:22;6.40;;;5.80;;
1414;SDS011;702;49.466;11.086;2023-06-26T00:28:50;6.47;;;5.87;;
1414;SDS011;702;49.466;11.086;2023-06-26T00:31:17;7.10;;;6.07;;
1414;SDS011;702;49.466;11.086;2023-06-26T00:33:44;7.33;;;6.53;;
1414;SDS011;702;49.466;11.086;2023-06-26T00:36:11;7.73;;;6.60;;
1414;SDS011;702;49.466;11.086;2023-06-26T00:38:40;6.27;;;5.67;;
1414;SDS011;702;49.466;11.086;2023-06-26T00:41:08;6.97;;;5.90;;
1414;SDS011;702;49.466;11.086;2023-06-26T00:43:38;6.63;;;5.93;;
1414;SDS011;702;49.466;11.086;2023-06-26T00:46:06;7.33;;;6.57;;
1414;SDS011;702;49.466;11.086;2023-06-26T00:48:37;7.17;;;6.50;;
1414;SDS011;702;49.466;11.086;2023-06-26T00:51:05;7.30;;;6.60;;
1414;SDS011;702;49.466;11.086;2023-06-26T00:53:33;6.77;;;6.03;;
1414;SDS011;702;49.466;11.086;2023-06-26T00:56:01;6.40;;;5.80;;
1414;SDS011;702;49.466;11.086;2023-06-26T00:58:31;7.73;;;6.40;;
1414;SDS011;702;49.466;11.086;2023-06-26T01:00:58;6.53;;;5.63;;
1414;SDS011;702;49.466;11.086;2023-06-26T01:03:26;6.70;;;5.90;;
1414;SDS011;702;49.466;11.086;2023-06-26T01:05:53;6.50;;;5.90;;
1414;SDS011;702;49.466;11.086;2023-06-26T01:08:23;7.60;;;5.97;;
1414;SDS011;702;49.466;11.086;2023-06-26T01:10:50;6.50;;;5.83;;
1414;SDS011;702;49.466;11.086;2023-06-26T01:13:17;7.13;;;6.20;;
1414;SDS011;702;49.466;11.086;2023-06-26T01:15:47;6.67;;;5.97;;
1414;SDS011;702;49.466;11.086;2023-06-26T01:18:15;6.77;;;6.07;;
1414;SDS011;702;49.466;11.086;2023-06-26T01:20:42;8.80;;;6.50;;
1414;SDS011;702;49.466;11.086;2023-06-26T01:23:12;6.27;;;5.67;;
1414;SDS011;702;49.466;11.086;2023-06-26T01:25:46;6.53;;;5.93;;
1414;SDS011;702;49.466;11.086;2023-06-26T01:28:38;6.80;;;6.20;;
1414;SDS011;702;49.466;11.086;2023-06-26T01:31:07;7.10;;;6.13;;
1414;SDS011;702;49.466;11.086;2023-06-26T01:33:37;6.70;;;5.83;;
1414;SDS011;702;49.466;11.086;2023-06-26T01:36:05;6.67;;;6.00;;
1414;SDS011;702;49.466;11.086;2023-06-26T01:38:33;7.73;;;6.57;;
1414;SDS011;702;49.466;11.086;2023-06-26T01:41:01;7.77;;;6.80;;
1414;SDS011;702;49.466;11.086;2023-06-26T01:43:31;7.47;;;6.70;;
1414;SDS011;702;49.466;11.086;2023-06-26T01:46:11;6.50;;;5.90;;
1414;SDS011;702;49.466;11.086;2023-06-26T01:48:48;8.40;;;7.50;;
1414;SDS011;702;49.466;11.086;2023-06-26T01:51:27;6.60;;;5.93;;
1414;SDS011;702;49.466;11.086;2023-06-26T01:53:59;5.60;;;5.00;;
1414;SDS011;702;49.466;11.086;2023-06-26T01:56:28;7.77;;;6.47;;
1414;SDS011;702;49.466;11.086;2023-06-26T01:58:57;7.27;;;5.90;;
1414;SDS011;702;49.466;11.086;2023-06-26T02:01:30;6.13;;;5.53;;
1414;SDS011;702;49.466;11.086;2023-06-26T02:04:01;8.10;;;6.27;;
1414;SDS011;702;49.466;11.086;2023-06-26T02:06:28;5.93;;;5.30;;
1414;SDS011;702;49.466;11.086;2023-06-26T02:08:55;7.00;;;6.17;;
1414;SDS011;702;49.466;11.086;2023-06-26T02:11:22;6.50;;;5.90;;
1414;SDS011;702;49.466;11.086;2023-06-26T02:13:49;7.57;;;6.00;;
1414;SDS011;702;49.466;11.086;2023-06-26T02:16:18;6.60;;;5.87;;
1414;SDS011;702;49.466;11.086;2023-06-26T02:18:46;6.90;;;6.20;;
1414;SDS011;702;49.466;11.086;2023-06-26T02:21:13;6.60;;;5.63;;
1414;SDS011;702;49.466;11.086;2023-06-26T02:23:40;7.73;;;6.43;;
1414;SDS011;702;49.466;11.086;2023-06-26T02:26:09;7.77;;;6.13;;
1414;SDS011;702;49.466;11.086;2023-06-26T02:28:36;11.60;;;6.17;;
1414;SDS011;702;49.466;11.086;2023-06-26T02:31:03;8.10;;;6.10;;
1414;SDS011;702;49.466;11.086;2023-06-26T02:33:32;7.10;;;6.40;;
1414;SDS011;702;49.466;11.086;2023-06-26T02:35:59;6.47;;;5.80;;
1414;SDS011;702;49.466;11.086;2023-06-26T02:38:26;6.70;;;6.10;;
1414;SDS011;702;49.466;11.086;2023-06-26T02:40:54;6.47;;;5.83;;
1414;SDS011;702;49.466;11.086;2023-06-26T02:43:21;7.33;;;5.67;;
1414;SDS011;702;49.466;11.086;2023-06-26T02:45:48;7.70;;;6.90;;
1414;SDS011;702;49.466;11.086;2023-06-26T02:48:15;6.73;;;6.13;;
1414;SDS011;702;49.466;11.086;2023-06-26T02:50:44;6.53;;;5.90;;
1414;SDS011;702;49.466;11.086;2023-06-26T02:53:11;6.80;;;6.10;;
1414;SDS011;702;49.466;11.086;2023-06-26T02:55:39;7.47;;;6.03;;
1414;SDS011;702;49.466;11.086;2023-06-26T02:58:06;8.00;;;6.70;;
1414;SDS011;702;49.466;11.086;2023-06-26T03:00:33;7.40;;;6.50;;
1414;SDS011;702;49.466;11.086;2023-06-26T03:03:06;7.37;;;6.60;;
1414;SDS011;702;49.466;11.086;2023-06-26T03:05:33;6.80;;;6.20;;
1414;SDS011;702;49.466;11.086;2023-06-26T03:08:03;7.13;;;6.43;;
1414;SDS011;702;49.466;11.086;2023-06-26T03:10:30;7.70;;;6.37;;
1414;SDS011;702;49.466;11.086;2023-06-26T03:12:57;6.80;;;6.10;;
1414;SDS011;702;49.466;11.086;2023-06-26T03:15:25;7.37;;;6.30;;
1414;SDS011;702;49.466;11.086;2023-06-26T03:17:52;9.00;;;7.17;;
1414;SDS011;702;49.466;11.086;2023-06-26T03:20:20;7.47;;;6.60;;
1414;SDS011;702;49.466;11.086;2023-06-26T03:22:47;6.97;;;6.10;;
1414;SDS011;702;49.466;11.086;2023-06-26T03:25:15;6.20;;;5.60;;
1414;SDS011;702;49.466;11.086;2023-06-26T03:27:43;8.13;;;6.20;;
1414;SDS011;702;49.466;11.086;2023-06-26T03:30:10;7.20;;;5.77;;
1414;SDS011;702;49.466;11.086;2023-06-26T03:32:39;6.83;;;5.70;;
1414;SDS011;702;49.466;11.086;2023-06-26T03:35:06;8.77;;;5.67;;
1414;SDS011;702;49.466;11.086;2023-06-26T03:37:34;8.90;;;6.50;;
1414;SDS011;702;49.466;11.086;2023-06-26T03:40:02;8.83;;;6.30;;
1414;SDS011;702;49.466;11.086;2023-06-26T03:42:32;6.83;;;6.13;;
1414;SDS011;702;49.466;11.086;2023-06-26T03:44:59;7.10;;;5.90;;
1414;SDS011;702;49.466;11.086;2023-06-26T03:47:26;7.20;;;5.90;;
1414;SDS011;702;49.466;11.086;2023-06-26T03:49:54;7.03;;;6.13;;
1414;SDS011;702;49.466;11.086;2023-06-26T03:52:21;6.30;;;5.70;;
1414;SDS011;702;49.466;11.086;2023-06-26T03:54:48;6.40;;;5.80;;
1414;SDS011;702;49.466;11.086;2023-06-26T03:57:16;6.83;;;5.57;;
1414;SDS011;702;49.466;11.086;2023-06-26T03:59:44;7.67;;;6.20;;
1414;SDS011;702;49.466;11.086;2023-06-26T04:02:12;7.20;;;5.80;;
1414;SDS011;702;49.466;11.086;2023-06-26T04:04:39;6.30;;;5.70;;
1414;SDS011;702;49.466;11.086;2023-06-26T04:07:06;7.40;;;6.20;;
1414;SDS011;702;49.466;11.086;2023-06-26T04:09:35;8.30;;;6.87;;
1414;SDS011;702;49.466;11.086;2023-06-26T04:12:02;7.47;;;6.03;;
1414;SDS011;702;49.466;11.086;2023-06-26T04:14:31;7.23;;;5.97;;
1414;SDS011;702;49.466;11.086;2023-06-26T04:16:59;7.53;;;5.67;;
1414;SDS011;702;49.466;11.086;2023-06-26T04:19:28;7.53;;;6.20;;
1414;SDS011;702;49.466;11.086;2023-06-26T04:21:55;7.13;;;6.43;;
1414;SDS011;702;49.466;11.086;2023-06-26T04:24:23;7.47;;;6.57;;
1414;SDS011;702;49.466;11.086;2023-06-26T04:26:50;6.23;;;5.53;;
1414;SDS011;702;49.466;11.086;2023-06-26T04:29:17;5.53;;;5.03;;
1414;SDS011;702;49.466;11.086;2023-06-26T04:31:44;6.43;;;5.83;;
1414;SDS011;702;49.466;11.086;2023-06-26T04:34:14;5.80;;;5.20;;
1414;SDS011;702;49.466;11.086;2023-06-26T04:36:41;6.53;;;5.90;;
1414;SDS011;702;49.466;11.086;2023-06-26T04:39:13;6.80;;;5.90;;
1414;SDS011;702;49.466;11.086;2023-06-26T04:41:41;7.47;;;6.47;;
1414;SDS011;702;49.466;11.086;2023-06-26T04:44:08;6.20;;;5.60;;
1414;SDS011;702;49.466;11.086;2023-06-26T04:46:36;5.93;;;5.33;;
1414;SDS011;702;49.466;11.086;2023-06-26T04:49:06;6.10;;;5.50;;
1414;SDS011;702;49.466;11.086;2023-06-26T04:51:35;5.97;;;4.80;;
1414;SDS011;702;49.466;11.086;2023-06-26T04:54:05;7.40;;;5.90;;
1414;SDS011;702;49.466;11.086;2023-06-26T04:56:33;6.17;;;5.50;;
1414;SDS011;702;49.466;11.086;2023-06-26T04:59:00;7.50;;;5.77;;
1414;SDS011;702;49.466;11.086;2023-06-26T05:01:28;6.30;;;5.70;;
1414;SDS011;702;49.466;11.086;2023-06-26T05:03:57;6.20;;;5.60;;
1414;SDS011;702;49.466;11.086;2023-06-26T05:06:24;7.93;;;5.77;;
1414;SDS011;702;49.466;11.086;2023-06-26T05:08:53;7.90;;;6.20;;
1414;SDS011;702;49.466;11.086;2023-06-26T05:11:20;6.20;;;5.60;;
1414;SDS011;702;49.466;11.086;2023-06-26T05:13:48;7.00;;;5.90;;
1414;SDS011;702;49.466;11.086;2023-06-26T05:16:15;6.43;;;5.73;;
1414;SDS011;702;49.466;11.086;2023-06-26T05:18:42;6.90;;;5.83;;
1414;SDS011;702;49.466;11.086;2023-06-26T05:21:10;7.77;;;6.53;;
1414;SDS011;702;49.466;11.086;2023-06-26T05:23:38;6.03;;;5.43;;
1414;SDS011;702;49.466;11.086;2023-06-26T05:26:08;5.40;;;4.93;;
1414;SDS011;702;49.466;11.086;2023-06-26T05:28:39;5.60;;;4.77;;
1414;SDS011;702;49.466;11.086;2023-06-26T05:31:06;6.77;;;6.03;;
1414;SDS011;702;49.466;11.086;2023-06-26T05:33:35;5.90;;;5.30;;
1414;SDS011;702;49.466;11.086;2023-06-26T05:36:04;6.40;;;5.80;;
1414;SDS011;702;49.466;11.086;2023-06-26T05:38:34;5.83;;;5.23;;
1414;SDS011;702;49.466;11.086;2023-06-26T05:41:03;6.33;;;5.73;;
1414;SDS011;702;49.466;11.086;2023-06-26T05:43:32;7.20;;;6.50;;
1414;SDS011;702;49.466;11.086;2023-06-26T05:46:00;6.80;;;6.10;;
1414;SDS011;702;49.466;11.086;2023-06-26T05:48:27;6.20;;;5.13;;
1414;SDS011;702;49.466;11.086;2023-06-26T05:50:55;5.73;;;5.13;;
1414;SDS011;702;49.466;11.086;2023-06-26T05:53:23;6.33;;;5.23;;
1414;SDS011;702;49.466;11.086;2023-06-26T05:55:51;6.57;;;5.60;;
1414;SDS011;702;49.466;11.086;2023-06-26T05:58:19;5.40;;;4.90;;
1414;SDS011;702;49.466;11.086;2023-06-26T06:00:50;6.40;;;5.80;;
1414;SDS011;702;49.466;11.086;2023-06-26T06:03:17;6.43;;;5.83;;
1414;SDS011;702;49.466;11.086;2023-06-26T06:05:44;5.60;;;5.10;;
1414;SDS011;702;49.466;11.086;2023-06-26T06:08:12;7.80;;;5.50;;
1414;SDS011;702;49.466;11.086;2023-06-26T06:10:39;5.50;;;5.00;;
1414;SDS011;702;49.466;11.086;2023-06-26T06:13:07;6.30;;;4.73;;
1414;SDS011;702;49.466;11.086;2023-06-26T06:15:34;6.27;;;5.47;;
1414;SDS011;702;49.466;11.086;2023-06-26T06:18:03;5.97;;;5.37;;
1414;SDS011;702;49.466;11.086;2023-06-26T06:20:31;6.40;;;5.73;;
1414;SDS011;702;49.466;11.086;2023-06-26T06:22:58;6.90;;;5.00;;
1414;SDS011;702;49.466;11.086;2023-06-26T06:25:27;5.57;;;5.07;;
1414;SDS011;702;49.466;11.086;2023-06-26T06:27:54;6.63;;;6.03;;
1414;SDS011;702;49.466;11.086;2023-06-26T06:30:22;7.30;;;5.20;;
1414;SDS011;702;49.466;11.086;2023-06-26T06:32:49;5.33;;;4.83;;
1414;SDS011;702;49.466;11.086;2023-06-26T06:35:19;6.20;;;4.97;;
1414;SDS011;702;49.466;11.086;2023-06-26T06:37:47;5.63;;;4.73;;
1414;SDS011;702;49.466;11.086;2023-06-26T06:40:16;6.60;;;5.70;;
1414;SDS011;702;49.466;11.086;2023-06-26T06:42:43;7.90;;;5.07;;
1414;SDS011;702;49.466;11.086;2023-06-26T06:45:10;6.33;;;5.17;;
1414;SDS011;702;49.466;11.086;2023-06-26T06:47:38;5.50;;;4.87;;
1414;SDS011;702;49.466;11.086;2023-06-26T06:50:06;7.60;;;5.27;;
1414;SDS011;702;49.466;11.086;2023-06-26T06:52:38;5.77;;;5.27;;
1414;SDS011;702;49.466;11.086;2023-06-26T06:55:07;5.60;;;4.90;;
1414;SDS011;702;49.466;11.086;2023-06-26T06:57:35;6.13;;;5.53;;
1414;SDS011;702;49.466;11.086;2023-06-26T07:00:04;5.03;;;4.53;;
1414;SDS011;702;49.466;11.086;2023-06-26T07:02:35;5.60;;;4.83;;
1414;SDS011;702;49.466;11.086;2023-06-26T07:05:02;6.27;;;5.17;;
1414;SDS011;702;49.466;11.086;2023-06-26T07:07:30;6.43;;;5.20;;
1414;SDS011;702;49.466;11.086;2023-06-26T07:10:02;6.80;;;5.70;;
1414;SDS011;702;49.466;11.086;2023-06-26T07:12:31;5.70;;;4.90;;
1414;SDS011;702;49.466;11.086;2023-06-26T07:14:59;5.93;;;5.10;;
1414;SDS011;702;49.466;11.086;2023-06-26T07:17:27;5.37;;;4.83;;
1414;SDS011;702;49.466;11.086;2023-06-26T07:19:55;6.33;;;5.73;;
1414;SDS011;702;49.466;11.086;2023-06-26T07:22:23;5.83;;;5.10;;
1414;SDS011;702;49.466;11.086;2023-06-26T07:24:51;5.40;;;4.90;;
1414;SDS011;702;49.466;11.086;2023-06-26T07:27:19;5.80;;;5.30;;
1414;SDS011;702;49.466;11.086;2023-06-26T07:29:47;5.63;;;5.13;;
1414;SDS011;702;49.466;11.086;2023-06-26T07:32:14;7.00;;;5.60;;
1414;SDS011;702;49.466;11.086;2023-06-26T07:34:42;5.60;;;5.03;;
1414;SDS011;702;49.466;11.086;2023-06-26T07:37:10;6.03;;;5.43;;
1414;SDS011;702;49.466;11.086;2023-06-26T07:39:39;5.47;;;4.97;;
1414;SDS011;702;49.466;11.086;2023-06-26T07:42:07;5.83;;;5.30;;
1414;SDS011;702;49.466;11.086;2023-06-26T07:44:37;5.80;;;5.27;;
1414;SDS011;702;49.466;11.086;2023-06-26T07:47:04;6.17;;;5.50;;
1414;SDS011;702;49.466;11.086;2023-06-26T07:49:32;7.03;;;5.87;;
1414;SDS011;702;49.466;11.086;2023-06-26T07:51:59;6.57;;;5.70;;
1414;SDS011;702;49.466;11.086;2023-06-26T07:54:26;8.57;;;5.93;;
1414;SDS011;702;49.466;11.086;2023-06-26T07:56:55;5.83;;;5.00;;
1414;SDS011;702;49.466;11.086;2023-06-26T07:59:24;6.73;;;5.30;;
1414;SDS011;702;49.466;11.086;2023-06-26T08:01:55;6.40;;;5.17;;
1414;SDS011;702;49.466;11.086;2023-06-26T08:04:25;6.30;;;5.70;;
1414;SDS011;702;49.466;11.086;2023-06-26T08:06:54;7.00;;;6.00;;
1414;SDS011;702;49.466;11.086;2023-06-26T08:09:25;6.73;;;6.03;;
1414;SDS011;702;49.466;11.086;2023-06-26T08:11:54;6.80;;;5.97;;
1414;SDS011;702;49.466;11.086;2023-06-26T08:14:22;6.83;;;5.50;;
1414;SDS011;702;49.466;11.086;2023-06-26T08:16:50;6.80;;;5.80;;
1414;SDS011;702;49.466;11.086;2023-06-26T08:19:19;6.37;;;5.77;;
1414;SDS011;702;49.466;11.086;2023-06-26T08:21:47;6.40;;;5.80;;
1414;SDS011;702;49.466;11.086;2023-06-26T08:24:14;7.40;;;6.70;;
1414;SDS011;702;49.466;11.086;2023-06-26T08:26:44;6.37;;;5.77;;
1414;SDS011;702;49.466;11.086;2023-06-26T08:29:12;6.23;;;5.63;;
1414;SDS011;702;49.466;11.086;2023-06-26T08:31:39;5.90;;;5.30;;
1414;SDS011;702;49.466;11.086;2023-06-26T08:34:08;6.07;;;5.47;;
1414;SDS011;702;49.466;11.086;2023-06-26T08:36:37;6.97;;;6.30;;
1414;SDS011;702;49.466;11.086;2023-06-26T08:39:05;6.80;;;6.13;;
1414;SDS011;702;49.466;11.086;2023-06-26T08:41:34;6.07;;;5.57;;
1414;SDS011;702;49.466;11.086;2023-06-26T08:44:02;7.00;;;6.20;;
1414;SDS011;702;49.466;11.086;2023-06-26T08:46:30;7.80;;;6.50;;
1414;SDS011;702;49.466;11.086;2023-06-26T08:49:00;5.80;;;5.30;;
1414;SDS011;702;49.466;11.086;2023-06-26T08:51:32;6.67;;;6.07;;
1414;SDS011;702;49.466;11.086;2023-06-26T08:54:05;6.63;;;6.03;;
1414;SDS011;702;49.466;11.086;2023-06-26T08:56:39;6.00;;;5.43;;
1414;SDS011;702;49.466;11.086;2023-06-26T08:59:09;6.57;;;5.43;;
1414;SDS011;702;49.466;11.086;2023-06-26T09:01:38;6.23;;;5.60;;
1414;SDS011;702;49.466;11.086;2023-06-26T09:04:06;7.13;;;5.93;;
1414;SDS011;702;49.466;11.086;2023-06-26T09:06:34;7.00;;;5.70;;
1414;SDS011;702;49.466;11.086;2023-06-26T09:09:03;8.47;;;6.10;;
1414;SDS011;702;49.466;11.086;2023-06-26T09:11:32;6.60;;;5.80;;
1414;SDS011;702;49.466;11.086;2023-06-26T09:14:00;7.10;;;6.40;;
1414;SDS011;702;49.466;11.086;2023-06-26T09:16:30;6.23;;;5.63;;
1414;SDS011;702;49.466;11.086;2023-06-26T09:18:57;6.20;;;5.60;;
1414;SDS011;702;49.466;11.086;2023-06-26T09:21:25;6.30;;;5.70;;
1414;SDS011;702;49.466;11.086;2023-06-26T09:23:52;5.47;;;4.97;;
1414;SDS011;702;49.466;11.086;2023-06-26T09:26:22;5.83;;;5.33;;
1414;SDS011;702;49.466;11.086;2023-06-26T09:28:50;6.60;;;6.00;;
1414;SDS011;702;49.466;11.086;2023-06-26T09:31:18;5.90;;;5.40;;
1414;SDS011;702;49.466;11.086;2023-06-26T09:33:47;7.07;;;5.90;;
1414;SDS011;702;49.466;11.086;2023-06-26T09:36:19;5.97;;;5.00;;
1414;SDS011;702;49.466;11.086;2023-06-26T09:38:47;5.93;;;5.03;;
1414;SDS011;702;49.466;11.086;2023-06-26T09:41:15;5.20;;;4.70;;
1414;SDS011;702;49.466;11.086;2023-06-26T09:43:48;5.90;;;5.33;;
1414;SDS011;702;49.466;11.086;2023-06-26T09:46:23;5.30;;;4.80;;
1414;SDS011;702;49.466;11.086;2023-06-26T09:48:57;6.80;;;6.10;;
1414;SDS011;702;49.466;11.086;2023-06-26T09:51:28;5.80;;;5.30;;
1414;SDS011;702;49.466;11.086;2023-06-26T09:53:57;5.67;;;5.17;;
1414;SDS011;702;49.466;11.086;2023-06-26T09:56:24;5.07;;;4.57;;
1414;SDS011;702;49.466;11.086;2023-06-26T09:58:56;5.70;;;5.20;;
1414;SDS011;702;49.466;11.086;2023-06-26T10:01:26;4.70;;;4.30;;
1414;SDS011;702;49.466;11.086;2023-06-26T10:03:53;4.50;;;4.10;;
1414;SDS011;702;49.466;11.086;2023-06-26T10:06:24;5.10;;;4.60;;
1414;SDS011;702;49.466;11.086;2023-06-26T10:08:55;5.27;;;4.67;;
1414;SDS011;702;49.466;11.086;2023-06-26T10:11:25;5.03;;;4.63;;
1414;SDS011;702;49.466;11.086;2023-06-26T10:14:03;5.30;;;4.80;;
1414;SDS011;702;49.466;11.086;2023-06-26T10:16:34;5.30;;;4.80;;
1414;SDS011;702;49.466;11.086;2023-06-26T10:19:05;5.57;;;5.00;;
1414;SDS011;702;49.466;11.086;2023-06-26T10:21:35;5.17;;;4.70;;
1414;SDS011;702;49.466;11.086;2023-06-26T10:24:05;5.97;;;5.47;;
1414;SDS011;702;49.466;11.086;2023-06-26T10:26:34;5.77;;;5.10;;
1414;SDS011;702;49.466;11.086;2023-06-26T10:29:06;6.37;;;5.67;;
1414;SDS011;702;49.466;11.086;2023-06-26T10:31:37;5.40;;;4.90;;
1414;SDS011;702;49.466;11.086;2023-06-26T10:34:07;6.53;;;5.93;;
1414;SDS011;702;49.466;11.086;2023-06-26T10:36:35;5.40;;;4.90;;
1414;SDS011;702;49.466;11.086;2023-06-26T10:39:03;6.30;;;5.70;;
1414;SDS011;702;49.466;11.086;2023-06-26T10:41:41;5.80;;;5.30;;
1414;SDS011;702;49.466;11.086;2023-06-26T10:44:10;5.93;;;5.27;;
1414;SDS011;702;49.466;11.086;2023-06-26T10:46:48;5.80;;;5.30;;
1414;SDS011;702;49.466;11.086;2023-06-26T10:49:18;5.70;;;5.20;;
1414;SDS011;702;49.466;11.086;2023-06-26T10:51:46;5.27;;;4.83;;
1414;SDS011;702;49.466;11.086;2023-06-26T10:54:16;5.97;;;5.13;;
1414;SDS011;702;49.466;11.086;2023-06-26T10:56:45;5.10;;;4.60;;
1414;SDS011;702;49.466;11.086;2023-06-26T10:59:17;5.20;;;4.80;;
1414;SDS011;702;49.466;11.086;2023-06-26T11:01:46;5.47;;;4.93;;
1414;SDS011;702;49.466;11.086;2023-06-26T11:04:35;5.47;;;4.93;;
1414;SDS011;702;49.466;11.086;2023-06-26T11:07:14;6.80;;;5.23;;
1414;SDS011;702;49.466;11.086;2023-06-26T11:09:54;5.30;;;4.80;;
1414;SDS011;702;49.466;11.086;2023-06-26T11:12:39;5.10;;;4.63;;
1414;SDS011;702;49.466;11.086;2023-06-26T11:15:11;6.63;;;4.73;;
1414;SDS011;702;49.466;11.086;2023-06-26T11:17:39;5.50;;;5.00;;
1414;SDS011;702;49.466;11.086;2023-06-26T11:20:10;4.90;;;4.40;;
1414;SDS011;702;49.466;11.086;2023-06-26T11:22:38;6.10;;;5.50;;
1414;SDS011;702;49.466;11.086;2023-06-26T11:25:08;5.47;;;4.93;;
1414;SDS011;702;49.466;11.086;2023-06-26T11:27:38;11.23;;;5.40;;
1414;SDS011;702;49.466;11.086;2023-06-26T11:30:06;4.87;;;4.47;;
1414;SDS011;702;49.466;11.086;2023-06-26T11:32:49;4.63;;;4.23;;
1414;SDS011;702;49.466;11.086;2023-06-26T11:35:21;5.03;;;4.50;;
1414;SDS011;702;49.466;11.086;2023-06-26T11:37:55;5.63;;;5.13;;
1414;SDS011;702;49.466;11.086;2023-06-26T11:40:26;5.43;;;4.93;;
1414;SDS011;702;49.466;11.086;2023-06-26T11:42:57;4.97;;;4.57;;
1414;SDS011;702;49.466;11.086;2023-06-26T11:45:27;5.23;;;4.83;;
1414;SDS011;702;49.466;11.086;2023-06-26T11:47:55;4.97;;;4.53;;
1414;SDS011;702;49.466;11.086;2023-06-26T11:50:23;5.73;;;5.23;;
1414;SDS011;702;49.466;11.086;2023-06-26T11:52:54;4.63;;;4.23;;
1414;SDS011;702;49.466;11.086;2023-06-26T11:55:24;4.80;;;4.40;;
1414;SDS011;702;49.466;11.086;2023-06-26T11:57:53;4.60;;;4.17;;
1414;SDS011;702;49.466;11.086;2023-06-26T12:00:22;4.47;;;4.07;;
1414;SDS011;702;49.466;11.086;2023-06-26T12:02:51;5.50;;;5.00;;
1414;SDS011;702;49.466;11.086;2023-06-26T12:05:20;3.80;;;3.50;;
1414;SDS011;702;49.466;11.086;2023-06-26T12:07:47;4.90;;;4.40;;
1414;SDS011;702;49.466;11.086;2023-06-26T12:10:16;4.90;;;4.43;;
1414;SDS011;702;49.466;11.086;2023-06-26T12:12:45;4.83;;;4.40;;
1414;SDS011;702;49.466;11.086;2023-06-26T12:15:13;4.03;;;3.63;;
1414;SDS011;702;49.466;11.086;2023-06-26T12:17:43;3.97;;;3.60;;
1414;SDS011;702;49.466;11.086;2023-06-26T12:20:21;4.10;;;3.77;;
1414;SDS011;702;49.466;11.086;2023-06-26T12:22:51;4.60;;;4.20;;
1414;SDS011;702;49.466;11.086;2023-06-26T12:25:22;4.30;;;3.90;;
1414;SDS011;702;49.466;11.086;2023-06-26T12:27:50;4.50;;;4.10;;
1414;SDS011;702;49.466;11.086;2023-06-26T12:30:17;4.30;;;3.90;;
1414;SDS011;702;49.466;11.086;2023-06-26T12:32:45;4.27;;;3.90;;
1414;SDS011;702;49.466;11.086;2023-06-26T12:35:12;4.70;;;4.30;;
1414;SDS011;702;49.466;11.086;2023-06-26T12:37:42;3.93;;;3.60;;
1414;SDS011;702;49.466;11.086;2023-06-26T12:40:17;4.93;;;4.53;;
1414;SDS011;702;49.466;11.086;2023-06-26T12:42:47;4.67;;;4.17;;
1414;SDS011;702;49.466;11.086;2023-06-26T12:45:14;3.30;;;3.10;;
1414;SDS011;702;49.466;11.086;2023-06-26T12:47:42;4.60;;;4.20;;
1414;SDS011;702;49.466;11.086;2023-06-26T12:50:09;4.10;;;3.80;;
1414;SDS011;702;49.466;11.086;2023-06-26T12:52:38;4.90;;;4.50;;
1414;SDS011;702;49.466;11.086;2023-06-26T12:55:08;4.57;;;4.27;;
1414;SDS011;702;49.466;11.086;2023-06-26T12:57:35;4.30;;;3.90;;
1414;SDS011;702;49.466;11.086;2023-06-26T13:00:03;4.33;;;4.03;;
1414;SDS011;702;49.466;11.086;2023-06-26T13:02:32;5.17;;;4.50;;
1414;SDS011;702;49.466;11.086;2023-06-26T13:04:59;4.50;;;4.10;;
1414;SDS011;702;49.466;11.086;2023-06-26T13:07:27;4.20;;;3.77;;
1414;SDS011;702;49.466;11.086;2023-06-26T13:09:55;5.27;;;4.67;;
1414;SDS011;702;49.466;11.086;2023-06-26T13:12:23;4.80;;;4.40;;
1414;SDS011;702;49.466;11.086;2023-06-26T13:14:51;4.77;;;4.37;;
1414;SDS011;702;49.466;11.086;2023-06-26T13:17:18;4.73;;;4.33;;
1414;SDS011;702;49.466;11.086;2023-06-26T13:19:45;4.87;;;4.43;;
1414;SDS011;702;49.466;11.086;2023-06-26T13:22:13;5.10;;;4.60;;
1414;SDS011;702;49.466;11.086;2023-06-26T13:24:41;5.40;;;5.00;;
1414;SDS011;702;49.466;11.086;2023-06-26T13:27:09;4.57;;;4.17;;
1414;SDS011;702;49.466;11.086;2023-06-26T13:29:38;4.63;;;4.33;;
1414;SDS011;702;49.466;11.086;2023-06-26T13:32:05;5.60;;;5.10;;
1414;SDS011;702;49.466;11.086;2023-06-26T13:34:33;5.27;;;4.87;;
1414;SDS011;702;49.466;11.086;2023-06-26T13:37:01;5.10;;;4.50;;
1414;SDS011;702;49.466;11.086;2023-06-26T13:39:28;4.90;;;4.50;;
1414;SDS011;702;49.466;11.086;2023-06-26T13:41:56;4.90;;;4.50;;
1414;SDS011;702;49.466;11.086;2023-06-26T13:44:23;5.13;;;4.73;;
1414;SDS011;702;49.466;11.086;2023-06-26T13:46:55;4.97;;;4.57;;
1414;SDS011;702;49.466;11.086;2023-06-26T13:49:22;5.30;;;4.80;;
1414;SDS011;702;49.466;11.086;2023-06-26T13:51:51;5.00;;;4.50;;
1414;SDS011;702;49.466;11.086;2023-06-26T13:54:21;5.47;;;4.97;;
1414;SDS011;702;49.466;11.086;2023-06-26T13:56:49;5.40;;;5.00;;
1414;SDS011;702;49.466;11.086;2023-06-26T13:59:16;5.00;;;4.60;;
1414;SDS011;702;49.466;11.086;2023-06-26T14:01:44;5.77;;;5.37;;
1414;SDS011;702;49.466;11.086;2023-06-26T14:04:13;4.80;;;4.40;;
1414;SDS011;702;49.466;11.086;2023-06-26T14:06:40;5.50;;;5.10;;
1414;SDS011;702;49.466;11.086;2023-06-26T14:09:08;5.47;;;4.97;;
1414;SDS011;702;49.466;11.086;2023-06-26T14:11:35;5.47;;;5.07;;
1414;SDS011;702;49.466;11.086;2023-06-26T14:14:03;5.13;;;4.73;;
1414;SDS011;702;49.466;11.086;2023-06-26T14:16:30;6.23;;;5.73;;
1414;SDS011;702;49.466;11.086;2023-06-26T14:18:59;5.80;;;5.30;;
1414;SDS011;702;49.466;11.086;2023-06-26T14:21:28;5.43;;;5.03;;
1414;SDS011;702;49.466;11.086;2023-06-26T14:23:55;5.40;;;5.00;;
1414;SDS011;702;49.466;11.086;2023-06-26T14:26:22;6.07;;;5.57;;
1414;SDS011;702;49.466;11.086;2023-06-26T14:28:50;5.90;;;5.40;;
1414;SDS011;702;49.466;11.086;2023-06-26T14:31:17;6.50;;;5.33;;
1414;SDS011;702;49.466;11.086;2023-06-26T14:33:45;5.93;;;5.43;;
1414;SDS011;702;49.466;11.086;2023-06-26T14:36:12;5.97;;;5.43;;
1414;SDS011;702;49.466;11.086;2023-06-26T14:38:41;5.67;;;5.20;;
1414;SDS011;702;49.466;11.086;2023-06-26T14:41:09;5.80;;;5.30;;
1414;SDS011;702;49.466;11.086;2023-06-26T14:43:36;5.60;;;5.10;;
1414;SDS011;702;49.466;11.086;2023-06-26T14:46:04;6.57;;;5.97;;
1414;SDS011;702;49.466;11.086;2023-06-26T14:48:31;5.57;;;5.10;;
1414;SDS011;702;49.466;11.086;2023-06-26T14:50:59;5.47;;;4.97;;
1414;SDS011;702;49.466;11.086;2023-06-26T14:53:26;5.93;;;5.40;;
1414;SDS011;702;49.466;11.086;2023-06-26T14:55:55;5.63;;;5.13;;
1414;SDS011;702;49.466;11.086;2023-06-26T14:58:22;6.47;;;5.87;;
1414;SDS011;702;49.466;11.086;2023-06-26T15:00:50;6.40;;;5.90;;
1414;SDS011;702;49.466;11.086;2023-06-26T15:03:17;6.60;;;5.60;;
1414;SDS011;702;49.466;11.086;2023-06-26T15:05:44;6.80;;;6.20;;
1414;SDS011;702;49.466;11.086;2023-06-26T15:08:11;5.77;;;5.27;;
1414;SDS011;702;49.466;11.086;2023-06-26T15:10:38;6.30;;;5.80;;
1414;SDS011;702;49.466;11.086;2023-06-26T15:13:07;6.60;;;6.00;;
1414;SDS011;702;49.466;11.086;2023-06-26T15:15:34;7.00;;;6.40;;
1414;SDS011;702;49.466;11.086;2023-06-26T15:18:02;6.27;;;5.67;;
1414;SDS011;702;49.466;11.086;2023-06-26T15:20:30;5.93;;;5.43;;
1414;SDS011;702;49.466;11.086;2023-06-26T15:22:57;6.90;;;6.30;;
1414;SDS011;702;49.466;11.086;2023-06-26T15:25:25;6.67;;;6.07;;